createdAt,value
2017-09-02T00:00:10.325Z,5.23
2017-09-02T00:02:45.231Z,6.27
2017-09-02T00:05:20.156Z,6.07
2017-09-02T00:07:54.834Z,5.77
2017-09-02T00:10:29.622Z,4.30
2017-09-02T00:13:04.324Z,5.63
2017-09-02T00:15:39.399Z,6.07
2017-09-02T00:18:14.246Z,5.17
2017-09-02T00:20:50.400Z,5.57
2017-09-02T00:23:24.903Z,5.30
2017-09-02T00:25:59.603Z,5.10
2017-09-02T00:28:35.191Z,5.50
2017-09-02T00:31:10.843Z,5.20
2017-09-02T00:33:45.623Z,5.47
2017-09-02T00:36:19.818Z,4.90
2017-09-02T00:38:54.902Z,5.67
2017-09-02T00:41:29.415Z,5.23
2017-09-02T00:44:03.851Z,6.00
2017-09-02T00:46:38.399Z,5.93
2017-09-02T00:49:12.955Z,5.30
2017-09-02T00:51:47.919Z,5.93
2017-09-02T00:54:22.719Z,5.17
2017-09-02T00:56:57.508Z,5.07
2017-09-02T00:59:32.134Z,5.60
2017-09-02T01:02:06.832Z,5.80
2017-09-02T01:04:41.540Z,5.43
2017-09-02T01:07:15.924Z,6.10
2017-09-02T01:09:51.044Z,5.43
2017-09-02T01:12:25.767Z,4.93
2017-09-02T01:15:00.779Z,5.43
2017-09-02T01:17:35.603Z,5.40
2017-09-02T01:20:10.342Z,5.73
2017-09-02T01:22:44.926Z,5.70
2017-09-02T01:25:19.534Z,6.90
2017-09-02T01:27:54.396Z,5.77
2017-09-02T01:30:34.476Z,6.20
2017-09-02T01:33:09.630Z,4.90
2017-09-02T01:35:44.731Z,5.23
2017-09-02T01:38:19.627Z,5.50
2017-09-02T01:40:54.339Z,5.87
2017-09-02T01:43:29.039Z,5.50
2017-09-02T01:46:03.790Z,5.60
2017-09-02T01:48:38.619Z,5.30
2017-09-02T01:51:13.298Z,5.30
2017-09-02T01:53:47.948Z,5.70
2017-09-02T01:56:22.692Z,5.43
2017-09-02T01:58:57.383Z,5.60
2017-09-02T02:01:31.895Z,6.00
2017-09-02T02:04:06.488Z,4.80
2017-09-02T02:06:41.298Z,5.07
2017-09-02T02:09:15.928Z,5.87
2017-09-02T02:11:50.436Z,5.30
2017-09-02T02:14:26.095Z,5.40
2017-09-02T02:17:00.708Z,6.60
2017-09-02T02:19:35.408Z,5.57
2017-09-02T02:22:10.167Z,5.60
2017-09-02T02:24:45.776Z,6.00
2017-09-02T02:27:20.543Z,4.80
2017-09-02T02:29:55.231Z,6.87
2017-09-02T02:32:30.268Z,5.90
2017-09-02T02:35:05.691Z,5.40
2017-09-02T02:37:40.411Z,5.80
2017-09-02T02:40:15.048Z,6.87
2017-09-02T02:42:49.843Z,5.60
2017-09-02T02:45:24.540Z,6.40
2017-09-02T02:47:59.499Z,5.67
2017-09-02T02:50:34.378Z,4.87
2017-09-02T02:53:09.079Z,5.63
2017-09-02T02:55:45.060Z,5.17
2017-09-02T02:58:20.672Z,5.17
2017-09-02T03:00:55.382Z,5.93
2017-09-02T03:03:30.047Z,5.63
2017-09-02T03:06:05.690Z,6.17
2017-09-02T03:08:40.399Z,5.77
2017-09-02T03:11:15.081Z,5.53
2017-09-02T03:13:50.586Z,5.40
2017-09-02T03:16:25.207Z,6.20
2017-09-02T03:18:59.743Z,5.60
2017-09-02T03:21:35.421Z,5.37
2017-09-02T03:24:10.047Z,5.37
2017-09-02T03:26:45.804Z,4.90
2017-09-02T03:29:20.428Z,5.57
2017-09-02T03:31:55.236Z,4.93
2017-09-02T03:34:29.840Z,4.50
2017-09-02T03:37:04.587Z,4.60
2017-09-02T03:39:39.395Z,4.60
2017-09-02T03:42:14.013Z,5.03
2017-09-02T03:44:48.750Z,4.77
2017-09-02T03:47:23.522Z,4.70
2017-09-02T03:49:58.456Z,5.13
2017-09-02T03:52:33.207Z,5.10
2017-09-02T03:55:07.743Z,5.60
2017-09-02T03:57:42.667Z,5.03
2017-09-02T04:00:17.155Z,6.57
2017-09-02T04:02:51.999Z,6.90
2017-09-02T04:05:26.884Z,8.10
2017-09-02T04:08:01.623Z,8.63
2017-09-02T04:10:36.356Z,8.80
2017-09-02T04:13:11.087Z,8.67
2017-09-02T04:15:45.631Z,8.40
2017-09-02T04:18:20.548Z,9.00
2017-09-02T04:20:55.322Z,9.40
2017-09-02T04:23:29.744Z,9.30
2017-09-02T04:26:04.464Z,10.20
2017-09-02T04:28:39.258Z,10.10
2017-09-02T04:31:14.076Z,10.23
2017-09-02T04:33:48.704Z,11.07
2017-09-02T04:36:23.510Z,10.23
2017-09-02T04:38:58.091Z,10.03
2017-09-02T04:41:33.038Z,10.00
2017-09-02T04:44:07.815Z,10.90
2017-09-02T04:46:42.619Z,11.43
2017-09-02T04:49:17.379Z,11.77
2017-09-02T04:51:52.207Z,10.90
2017-09-02T04:54:27.320Z,9.70
2017-09-02T04:57:01.638Z,10.30
2017-09-02T04:59:36.050Z,10.70
2017-09-02T05:02:11.043Z,10.10
2017-09-02T05:04:45.992Z,11.30
2017-09-02T05:07:20.763Z,11.27
2017-09-02T05:09:55.515Z,12.30
2017-09-02T05:12:30.327Z,10.90
2017-09-02T05:15:04.936Z,11.37
2017-09-02T05:17:39.854Z,11.00
2017-09-02T05:20:14.912Z,11.90
2017-09-02T05:22:49.835Z,11.80
2017-09-02T05:25:24.487Z,11.37
2017-09-02T05:27:59.238Z,11.30
2017-09-02T05:30:34.092Z,11.97
2017-09-02T05:33:08.835Z,12.50
2017-09-02T05:35:43.488Z,12.90
2017-09-02T05:38:18.308Z,12.27
2017-09-02T05:40:53.312Z,13.20
2017-09-02T05:43:28.098Z,11.07
2017-09-02T05:46:02.796Z,12.70
2017-09-02T05:48:37.695Z,12.67
2017-09-02T05:51:13.485Z,12.50
2017-09-02T05:53:48.279Z,13.37
2017-09-02T05:56:23.233Z,11.00
2017-09-02T05:58:57.940Z,13.13
2017-09-02T06:01:33.054Z,12.67
2017-09-02T06:04:07.921Z,13.07
2017-09-02T06:06:42.014Z,10.43
2017-09-02T06:09:17.203Z,11.13
2017-09-02T06:11:52.448Z,12.57
2017-09-02T06:14:27.360Z,11.87
2017-09-02T06:17:02.279Z,12.33
2017-09-02T06:19:37.249Z,13.10
2017-09-02T06:22:12.286Z,12.77
2017-09-02T06:24:47.084Z,12.50
2017-09-02T06:27:22.222Z,12.17
2017-09-02T06:29:56.850Z,10.23
2017-09-02T06:32:31.480Z,11.90
2017-09-02T06:35:06.187Z,11.97
2017-09-02T06:37:40.930Z,12.97
2017-09-02T06:40:15.803Z,12.13
2017-09-02T06:42:50.356Z,11.60
2017-09-02T06:45:25.200Z,11.57
2017-09-02T06:48:00.047Z,12.30
2017-09-02T06:50:34.879Z,11.37
2017-09-02T06:53:09.552Z,11.70
2017-09-02T06:55:44.339Z,10.97
2017-09-02T06:58:19.135Z,10.90
2017-09-02T07:00:53.919Z,11.80
2017-09-02T07:03:28.643Z,11.30
2017-09-02T07:06:03.452Z,11.73
2017-09-02T07:08:38.507Z,10.27
2017-09-02T07:11:13.667Z,9.57
2017-09-02T07:13:48.296Z,9.47
2017-09-02T07:16:23.019Z,9.50
2017-09-02T07:18:57.699Z,11.13
2017-09-02T07:21:32.346Z,10.50
2017-09-02T07:24:07.458Z,9.50
2017-09-02T07:26:42.198Z,9.20
2017-09-02T07:29:17.035Z,9.63
2017-09-02T07:31:51.771Z,10.40
2017-09-02T07:34:26.768Z,8.97
2017-09-02T07:37:01.439Z,9.87
2017-09-02T07:39:36.452Z,9.17
2017-09-02T07:42:11.227Z,9.53
2017-09-02T07:44:45.927Z,9.00
2017-09-02T07:47:20.754Z,8.60
2017-09-02T07:49:55.464Z,8.00
2017-09-02T07:52:31.000Z,8.27
2017-09-02T07:55:05.744Z,8.10
2017-09-02T07:57:40.494Z,8.30
2017-09-02T08:00:15.322Z,8.20
2017-09-02T08:02:49.868Z,7.60
2017-09-02T08:05:25.495Z,7.00
2017-09-02T08:08:00.115Z,7.30
2017-09-02T08:10:34.702Z,7.37
2017-09-02T08:13:09.352Z,6.53
2017-09-02T08:15:43.954Z,6.70
2017-09-02T08:18:19.067Z,6.20
2017-09-02T08:20:53.460Z,7.33
2017-09-02T08:23:28.558Z,5.60
2017-09-02T08:26:03.317Z,7.00
2017-09-02T08:28:38.235Z,5.77
2017-09-02T08:31:13.551Z,6.20
2017-09-02T08:33:48.323Z,5.10
2017-09-02T08:36:23.367Z,6.63
2017-09-02T08:38:58.069Z,4.57
2017-09-02T08:41:32.608Z,4.37
2017-09-02T08:44:07.406Z,5.40
2017-09-02T08:46:42.240Z,4.10
2017-09-02T08:49:17.421Z,3.43
2017-09-02T08:51:52.095Z,4.50
2017-09-02T08:54:26.885Z,4.63
2017-09-02T08:57:01.480Z,4.03
2017-09-02T08:59:36.131Z,3.60
2017-09-02T09:02:11.038Z,3.20
2017-09-02T09:04:45.671Z,3.23
2017-09-02T09:07:20.419Z,2.70
2017-09-02T09:09:55.043Z,2.50
2017-09-02T09:12:29.995Z,3.40
2017-09-02T09:15:04.340Z,2.87
2017-09-02T09:17:39.216Z,2.73
2017-09-02T09:20:13.935Z,2.40
2017-09-02T09:22:49.447Z,3.10
2017-09-02T09:25:24.152Z,2.63
2017-09-02T09:27:58.751Z,2.77
2017-09-02T09:30:33.271Z,1.80
2017-09-02T09:33:07.990Z,2.03
2017-09-02T09:35:43.564Z,2.17
2017-09-02T09:38:18.588Z,1.90
2017-09-02T09:40:53.492Z,2.27
2017-09-02T09:43:28.199Z,1.80
2017-09-02T09:46:03.296Z,1.77
2017-09-02T09:48:39.027Z,1.80
2017-09-02T09:51:13.655Z,2.13
2017-09-02T09:53:48.192Z,2.07
2017-09-02T09:56:22.855Z,1.90
2017-09-02T09:58:57.923Z,2.10
2017-09-02T10:01:32.927Z,1.97
2017-09-02T10:04:07.198Z,2.67
2017-09-02T10:06:42.120Z,1.77
2017-09-02T10:09:16.820Z,1.73
2017-09-02T10:11:51.424Z,2.10
2017-09-02T10:14:26.246Z,1.53
2017-09-02T10:17:01.083Z,2.33
2017-09-02T10:19:35.780Z,1.63
2017-09-02T10:22:10.382Z,1.60
2017-09-02T10:24:45.145Z,1.70
2017-09-02T10:27:20.051Z,1.17
2017-09-02T10:29:54.613Z,1.57
2017-09-02T10:32:29.216Z,1.10
2017-09-02T10:35:04.111Z,1.40
2017-09-02T10:37:38.711Z,1.20
2017-09-02T10:40:15.682Z,1.20
2017-09-02T10:42:51.119Z,1.50
2017-09-02T10:45:25.840Z,1.60
2017-09-02T10:48:00.509Z,1.40
2017-09-02T10:50:35.322Z,1.10
2017-09-02T10:53:09.955Z,1.10
2017-09-02T10:55:44.755Z,1.60
2017-09-02T10:58:19.567Z,1.37
2017-09-02T11:00:54.332Z,1.50
2017-09-02T11:03:29.015Z,1.17
2017-09-02T11:06:03.855Z,1.50
2017-09-02T11:08:39.035Z,1.20
2017-09-02T11:11:14.236Z,1.63
2017-09-02T11:13:49.283Z,1.30
2017-09-02T11:16:24.107Z,1.40
2017-09-02T11:18:58.823Z,1.20
2017-09-02T11:21:33.563Z,1.17
2017-09-02T11:24:09.866Z,1.60
2017-09-02T11:26:45.161Z,1.30
2017-09-02T11:29:20.299Z,1.10
2017-09-02T11:31:55.016Z,1.30
2017-09-02T11:34:29.777Z,1.30
2017-09-02T11:37:04.497Z,1.30
2017-09-02T11:39:39.231Z,1.30
2017-09-02T11:42:14.184Z,1.30
2017-09-02T11:44:49.079Z,1.43
2017-09-02T11:47:23.852Z,1.50
2017-09-02T11:49:58.735Z,1.53
2017-09-02T11:52:33.811Z,1.30
2017-09-02T11:55:08.743Z,1.30
2017-09-02T11:57:43.359Z,1.40
2017-09-02T12:00:18.020Z,1.83
2017-09-02T12:02:53.000Z,2.70
2017-09-02T12:05:27.760Z,2.63
2017-09-02T12:08:02.374Z,2.67
2017-09-02T12:10:37.140Z,2.90
2017-09-02T12:13:11.942Z,2.20
2017-09-02T12:15:46.838Z,2.40
2017-09-02T12:18:21.600Z,2.47
2017-09-02T12:20:56.511Z,2.80
2017-09-02T12:23:31.264Z,3.23
2017-09-02T12:26:06.063Z,2.40
2017-09-02T12:28:41.096Z,2.70
2017-09-02T12:31:16.470Z,2.33
2017-09-02T12:33:52.110Z,2.10
2017-09-02T12:36:26.852Z,2.07
2017-09-02T12:39:01.775Z,1.60
2017-09-02T12:41:36.211Z,2.00
2017-09-02T12:44:10.947Z,1.97
2017-09-02T12:46:45.639Z,2.40
2017-09-02T12:49:20.392Z,1.90
2017-09-02T12:51:55.091Z,2.17
2017-09-02T12:54:29.946Z,2.30
2017-09-02T12:57:04.685Z,1.80
2017-09-02T12:59:39.498Z,2.60
2017-09-02T13:02:14.116Z,2.33
2017-09-02T13:04:48.844Z,1.90
2017-09-02T13:07:23.495Z,1.87
2017-09-02T13:09:59.135Z,5.13
2017-09-02T13:12:33.791Z,2.40
2017-09-02T13:15:08.731Z,2.10
2017-09-02T13:17:43.611Z,3.40
2017-09-02T13:20:18.364Z,2.80
2017-09-02T13:22:52.976Z,2.60
2017-09-02T13:25:28.129Z,2.57
2017-09-02T13:28:03.052Z,2.70
2017-09-02T13:30:37.850Z,2.30
2017-09-02T13:33:12.648Z,2.33
2017-09-02T13:35:47.288Z,2.33
2017-09-02T13:38:22.058Z,2.23
2017-09-02T13:40:56.752Z,2.70
2017-09-02T13:43:31.494Z,2.80
2017-09-02T13:46:06.294Z,5.10
2017-09-02T13:48:41.111Z,4.73
2017-09-02T13:51:15.778Z,8.97
2017-09-02T13:53:50.480Z,3.70
2017-09-02T13:56:25.231Z,1.60
2017-09-02T13:58:59.915Z,1.70
2017-09-02T14:01:34.556Z,1.57
2017-09-02T14:04:09.279Z,1.53
2017-09-02T14:06:44.032Z,1.40
2017-09-02T14:09:18.548Z,1.80
2017-09-02T14:11:53.519Z,1.63
2017-09-02T14:14:28.577Z,1.60
2017-09-02T14:17:03.401Z,2.00
2017-09-02T14:19:38.028Z,1.67
2017-09-02T14:22:12.656Z,2.23
2017-09-02T14:24:47.196Z,1.90
2017-09-02T14:27:22.159Z,2.10
2017-09-02T14:29:56.770Z,1.93
2017-09-02T14:32:31.576Z,2.20
2017-09-02T14:35:06.280Z,2.00
2017-09-02T14:37:40.924Z,2.03
2017-09-02T14:40:15.833Z,1.93
2017-09-02T14:42:50.547Z,1.63
2017-09-02T14:45:25.143Z,2.30
2017-09-02T14:48:00.039Z,1.80
2017-09-02T14:50:34.652Z,1.90
2017-09-02T14:53:09.504Z,2.83
2017-09-02T14:55:44.150Z,1.57
2017-09-02T14:58:20.301Z,2.07
2017-09-02T15:00:55.459Z,1.67
2017-09-02T15:03:30.315Z,1.70
2017-09-02T15:06:05.020Z,1.90
2017-09-02T15:08:39.740Z,2.00
2017-09-02T15:11:14.253Z,2.90
2017-09-02T15:13:49.066Z,3.30
2017-09-02T15:16:23.790Z,2.13
2017-09-02T15:18:58.582Z,2.70
2017-09-02T15:21:33.411Z,2.70
2017-09-02T15:24:08.140Z,2.50
2017-09-02T15:26:42.839Z,2.40
2017-09-02T15:29:17.651Z,3.07
2017-09-02T15:31:52.326Z,2.90
2017-09-02T15:34:27.181Z,2.90
2017-09-02T15:37:01.746Z,3.20
2017-09-02T15:39:36.259Z,2.43
2017-09-02T15:42:10.895Z,2.63
2017-09-02T15:44:45.691Z,2.70
2017-09-02T15:47:20.516Z,2.40
2017-09-02T15:49:55.762Z,2.23
2017-09-02T15:52:30.803Z,2.47
2017-09-02T15:55:05.769Z,2.23
2017-09-02T15:57:40.679Z,2.17
2017-09-02T16:00:15.512Z,2.33
2017-09-02T16:02:50.332Z,2.20
2017-09-02T16:05:24.971Z,2.10
2017-09-02T16:07:59.809Z,2.33
2017-09-02T16:10:35.348Z,2.20
2017-09-02T16:13:10.064Z,2.07
2017-09-02T16:15:44.784Z,2.40
2017-09-02T16:18:19.424Z,2.27
2017-09-02T16:20:54.078Z,2.20
2017-09-02T16:23:29.759Z,2.13
2017-09-02T16:26:04.522Z,2.23
2017-09-02T16:28:39.388Z,1.90
2017-09-02T16:31:14.006Z,2.40
2017-09-02T16:33:48.644Z,2.33
2017-09-02T16:36:23.268Z,2.40
2017-09-02T16:38:57.872Z,2.30
2017-09-02T16:41:32.595Z,2.30
2017-09-02T16:44:07.135Z,2.77
2017-09-02T16:46:41.656Z,2.20
2017-09-02T16:49:17.224Z,2.37
2017-09-02T16:51:51.666Z,2.10
2017-09-02T16:54:27.462Z,2.10
2017-09-02T16:57:01.812Z,2.20
2017-09-02T16:59:36.368Z,2.10
2017-09-02T17:02:11.110Z,1.97
2017-09-02T17:04:45.825Z,2.10
2017-09-02T17:07:20.780Z,2.10
2017-09-02T17:09:55.146Z,2.07
2017-09-02T17:12:29.852Z,1.80
2017-09-02T17:15:04.496Z,2.07
2017-09-02T17:17:39.093Z,2.30
2017-09-02T17:20:13.614Z,2.47
2017-09-02T17:22:48.269Z,2.50
2017-09-02T17:25:22.923Z,1.93
2017-09-02T17:27:57.542Z,2.47
2017-09-02T17:30:32.084Z,1.90
2017-09-02T17:33:06.703Z,1.90
2017-09-02T17:35:40.970Z,2.20
2017-09-02T17:38:15.879Z,2.13
2017-09-02T17:40:50.460Z,2.40
2017-09-02T17:43:25.188Z,2.20
2017-09-02T17:45:59.595Z,2.00
2017-09-02T17:48:34.541Z,2.13
2017-09-02T17:51:09.052Z,2.27
2017-09-02T17:53:43.866Z,2.90
2017-09-02T17:56:18.588Z,4.17
2017-09-02T17:58:53.819Z,2.77
2017-09-02T18:01:28.602Z,2.50
2017-09-02T18:04:04.642Z,2.77
2017-09-02T18:06:39.367Z,3.33
2017-09-02T18:09:14.119Z,2.80
2017-09-02T18:11:49.455Z,3.20
2017-09-02T18:14:24.311Z,2.67
2017-09-02T18:16:59.031Z,2.90
2017-09-02T18:19:33.784Z,2.80
2017-09-02T18:22:08.591Z,3.60
2017-09-02T18:24:44.061Z,6.57
2017-09-02T18:27:19.052Z,4.70
2017-09-02T18:29:53.875Z,4.53
2017-09-02T18:32:28.540Z,4.93
2017-09-02T18:35:03.292Z,4.30
2017-09-02T18:37:38.867Z,4.00
2017-09-02T18:40:13.612Z,4.27
2017-09-02T18:42:48.328Z,3.77
2017-09-02T18:45:22.954Z,3.63
2017-09-02T18:47:57.424Z,3.10
2017-09-02T18:50:32.135Z,3.40
2017-09-02T18:53:06.726Z,3.20
2017-09-02T18:55:41.571Z,3.30
2017-09-02T18:58:16.219Z,3.07
2017-09-02T19:00:51.115Z,3.40
2017-09-02T19:03:26.083Z,3.17
2017-09-02T19:06:00.904Z,3.90
2017-09-02T19:08:35.694Z,4.37
2017-09-02T19:11:10.167Z,3.87
2017-09-02T19:13:44.884Z,4.90
2017-09-02T19:16:20.099Z,4.63
2017-09-02T19:18:55.088Z,5.83
2017-09-02T19:21:29.359Z,6.60
2017-09-02T19:24:04.495Z,4.90
2017-09-02T19:26:39.663Z,4.83
2017-09-02T19:29:14.748Z,6.17
2017-09-02T19:31:49.263Z,6.50
2017-09-02T19:34:23.974Z,6.03
2017-09-02T19:36:58.802Z,7.30
2017-09-02T19:39:33.630Z,6.80
2017-09-02T19:42:08.267Z,7.50
2017-09-02T19:44:42.916Z,6.80
2017-09-02T19:47:17.695Z,5.80
2017-09-02T19:49:52.319Z,5.33
2017-09-02T19:52:27.022Z,4.40
2017-09-02T19:55:02.076Z,4.67
2017-09-02T19:57:37.431Z,5.03
2017-09-02T20:00:12.160Z,4.83
2017-09-02T20:02:47.023Z,4.70
2017-09-02T20:05:21.739Z,4.80
2017-09-02T20:07:56.433Z,4.90
2017-09-02T20:10:30.883Z,5.30
2017-09-02T20:13:06.485Z,4.87
2017-09-02T20:15:41.250Z,5.07
2017-09-02T20:18:15.879Z,5.10
2017-09-02T20:20:50.592Z,4.80
2017-09-02T20:23:25.438Z,4.60
2017-09-02T20:26:00.190Z,5.80
2017-09-02T20:28:35.072Z,5.53
2017-09-02T20:31:09.832Z,5.03
2017-09-02T20:33:44.358Z,5.47
2017-09-02T20:36:19.405Z,4.67
2017-09-02T20:38:55.239Z,4.40
2017-09-02T20:41:29.792Z,5.07
2017-09-02T20:44:04.720Z,5.73
2017-09-02T20:46:39.639Z,4.70
2017-09-02T20:49:14.422Z,5.13
2017-09-02T20:51:49.278Z,5.20
2017-09-02T20:54:24.083Z,5.47
2017-09-02T20:56:58.631Z,5.73
2017-09-02T20:59:33.263Z,5.80
2017-09-02T21:02:07.963Z,6.10
2017-09-02T21:04:42.595Z,5.43
2017-09-02T21:07:17.281Z,6.43
2017-09-02T21:09:51.975Z,7.17
2017-09-02T21:12:26.601Z,8.60
2017-09-02T21:15:01.239Z,11.07
2017-09-02T21:17:36.219Z,10.47
2017-09-02T21:20:10.840Z,10.23
2017-09-02T21:22:45.524Z,7.70
2017-09-02T21:25:20.159Z,7.80
2017-09-02T21:27:54.988Z,17.83
2017-09-02T21:30:29.940Z,18.60
2017-09-02T21:33:04.207Z,16.33
2017-09-02T21:35:39.491Z,12.50
2017-09-02T21:38:14.222Z,13.90
2017-09-02T21:40:49.122Z,36.20
2017-09-02T21:43:23.875Z,11.57
2017-09-02T21:45:58.676Z,8.00
2017-09-02T21:48:33.460Z,7.60
2017-09-02T21:51:08.144Z,7.53
2017-09-02T21:53:42.903Z,6.87
2017-09-02T21:56:17.768Z,5.80
2017-09-02T21:58:52.634Z,5.80
2017-09-02T22:01:27.276Z,6.60
2017-09-02T22:04:01.971Z,7.50
2017-09-02T22:06:36.732Z,6.40
2017-09-02T22:09:12.236Z,6.40
2017-09-02T22:11:47.083Z,6.73
2017-09-02T22:14:21.936Z,6.90
2017-09-02T22:16:56.658Z,6.60
2017-09-02T22:19:31.386Z,6.30
2017-09-02T22:22:05.995Z,6.93
2017-09-02T22:24:40.772Z,7.90
2017-09-02T22:27:15.351Z,7.87
2017-09-02T22:29:50.246Z,7.33
2017-09-02T22:32:24.940Z,7.73
2017-09-02T22:34:59.650Z,7.80
2017-09-02T22:37:34.395Z,7.17
2017-09-02T22:40:09.055Z,7.50
2017-09-02T22:42:44.166Z,7.03
2017-09-02T22:45:18.676Z,7.33
2017-09-02T22:47:53.510Z,7.30
2017-09-02T22:50:28.302Z,6.60
2017-09-02T22:53:03.069Z,7.60
2017-09-02T22:55:38.712Z,8.27
2017-09-02T22:58:13.242Z,7.83
2017-09-02T23:00:47.967Z,7.20
2017-09-02T23:03:23.618Z,7.00
2017-09-02T23:05:58.342Z,7.93
2017-09-02T23:08:33.172Z,11.50
2017-09-02T23:11:08.243Z,11.87
2017-09-02T23:13:43.143Z,9.93
2017-09-02T23:16:18.015Z,12.83
2017-09-02T23:18:52.763Z,10.90
2017-09-02T23:21:27.505Z,10.50
2017-09-02T23:24:02.359Z,7.30
2017-09-02T23:26:37.098Z,7.00
2017-09-02T23:29:11.835Z,6.97
2017-09-02T23:31:46.803Z,7.20
2017-09-02T23:34:21.615Z,8.20
2017-09-02T23:36:56.310Z,7.43
2017-09-02T23:39:30.966Z,7.90
2017-09-02T23:42:05.567Z,7.63
2017-09-02T23:44:40.318Z,7.50
2017-09-02T23:47:15.152Z,9.00
2017-09-02T23:49:50.164Z,7.80
2017-09-02T23:52:24.783Z,7.43
2017-09-02T23:54:59.938Z,6.33
2017-09-02T23:57:34.683Z,7.37
